Time;durP1;ratioP1;P1;durP2;ratioP2;P2;SDS_P1;SDS_P2;PMS_P1;PMS_P2;Temp;Humidity;BMP_temperature;BMP_pressure;BME280_temperature;BME280_humidity;BME280_pressure;Samples;Min_cycle;Max_cycle;Signal;HPM_P1;HPM_P2
2024/01/20 00:01:13;;;;;;;183.30;51.47;;;;;;;;;;5000711;28;20224;-42
2024/01/20 00:03:39;;;;;;;181.23;51.30;;;;;;;;;;4993918;28;20827;-42
2024/01/20 00:06:05;;;;;;;181.82;50.40;;;;;;;;;;4996279;28;20412;-42
2024/01/20 00:08:31;;;;;;;181.68;50.90;;;;;;;;;;4997405;28;20203;-42
2024/01/20 00:10:57;;;;;;;181.07;51.70;;;;;;;;;;4993588;28;20197;-42
2024/01/20 00:13:23;;;;;;;181.27;52.30;;;;;;;;;;4994487;28;20196;-42
2024/01/20 00:15:49;;;;;;;182.50;50.60;;;;;;;;;;4994381;28;20428;-42
2024/01/20 00:18:15;;;;;;;186.95;53.67;;;;;;;;;;4993178;28;20405;-42
2024/01/20 00:20:42;;;;;;;184.50;52.50;;;;;;;;;;4992717;28;20239;-42
2024/01/20 00:23:08;;;;;;;182.43;51.22;;;;;;;;;;4994352;28;20435;-42
2024/01/20 00:25:34;;;;;;;183.43;52.67;;;;;;;;;;4993741;28;20623;-42
2024/01/20 00:28:01;;;;;;;182.53;52.57;;;;;;;;;;4993545;28;20459;-42
2024/01/20 00:30:27;;;;;;;184.52;53.83;;;;;;;;;;4994152;28;20404;-43
2024/01/20 00:32:53;;;;;;;180.43;51.80;;;;;;;;;;4994196;28;20189;-42
2024/01/20 00:35:19;;;;;;;183.10;52.30;;;;;;;;;;4994542;28;20408;-42
2024/01/20 00:37:45;;;;;;;183.23;52.83;;;;;;;;;;4994419;28;20506;-42
2024/01/20 00:40:11;;;;;;;189.83;57.43;;;;;;;;;;4994026;28;20220;-42
2024/01/20 00:42:37;;;;;;;184.38;52.67;;;;;;;;;;4993954;28;20432;-43
2024/01/20 00:45:04;;;;;;;183.57;53.00;;;;;;;;;;4994040;28;20188;-42
2024/01/20 00:47:30;;;;;;;182.50;52.20;;;;;;;;;;4994216;28;20508;-42
2024/01/20 00:49:56;;;;;;;183.20;52.58;;;;;;;;;;4994062;28;20283;-43
2024/01/20 00:52:22;;;;;;;184.03;53.73;;;;;;;;;;4993761;28;20695;-42
2024/01/20 00:54:48;;;;;;;130.35;51.10;;;;;;;;;;4993803;28;20798;-42
2024/01/20 00:57:14;;;;;;;182.70;52.30;;;;;;;;;;4993973;28;20266;-42
2024/01/20 00:59:40;;;;;;;182.63;52.35;;;;;;;;;;4993815;28;20416;-42
2024/01/20 01:02:06;;;;;;;181.43;50.35;;;;;;;;;;4993701;28;20283;-43
2024/01/20 01:04:32;;;;;;;146.07;51.87;;;;;;;;;;4993927;28;20653;-43
2024/01/20 01:06:58;;;;;;;183.50;53.47;;;;;;;;;;4993710;28;20416;-42
2024/01/20 01:09:24;;;;;;;183.40;52.50;;;;;;;;;;4993655;28;20416;-42
2024/01/20 01:11:50;;;;;;;179.77;51.20;;;;;;;;;;4993388;28;20427;-43
2024/01/20 01:14:16;;;;;;;182.43;52.50;;;;;;;;;;4993543;28;20504;-43
2024/01/20 01:16:41;;;;;;;183.17;53.60;;;;;;;;;;4993652;28;20467;-43
2024/01/20 01:19:07;;;;;;;165.10;53.30;;;;;;;;;;4993585;28;20846;-43
2024/01/20 01:21:33;;;;;;;182.25;51.95;;;;;;;;;;4993546;28;20428;-43
2024/01/20 01:23:59;;;;;;;181.77;52.05;;;;;;;;;;4993345;28;20275;-42
2024/01/20 01:26:25;;;;;;;181.77;52.20;;;;;;;;;;4993482;28;20188;-42
2024/01/20 01:28:51;;;;;;;180.97;53.07;;;;;;;;;;4992974;28;20514;-42
2024/01/20 01:31:17;;;;;;;181.18;51.13;;;;;;;;;;4993031;28;20416;-43
2024/01/20 01:33:43;;;;;;;182.63;53.42;;;;;;;;;;4993072;28;20242;-43
2024/01/20 01:36:10;;;;;;;179.97;51.37;;;;;;;;;;4993032;28;20185;-42
2024/01/20 01:38:36;;;;;;;179.10;51.25;;;;;;;;;;4992977;28;20486;-42
2024/01/20 01:41:02;;;;;;;177.93;50.83;;;;;;;;;;4992687;28;20204;-43
2024/01/20 01:43:28;;;;;;;179.43;52.80;;;;;;;;;;4992683;28;20435;-42
2024/01/20 01:45:54;;;;;;;181.25;51.78;;;;;;;;;;4991857;28;20420;-42
2024/01/20 01:48:21;;;;;;;181.33;53.03;;;;;;;;;;4992905;28;20196;-42
2024/01/20 01:50:48;;;;;;;182.32;53.30;;;;;;;;;;4992456;28;20432;-42
2024/01/20 01:53:14;;;;;;;181.20;51.97;;;;;;;;;;4992825;28;20711;-43
2024/01/20 01:55:43;;;;;;;178.85;51.08;;;;;;;;;;4993114;28;20184;-42
2024/01/20 01:58:09;;;;;;;176.38;50.60;;;;;;;;;;4992688;28;20268;-42
2024/01/20 02:00:35;;;;;;;187.48;54.75;;;;;;;;;;4992185;28;20174;-42
2024/01/20 02:03:02;;;;;;;143.60;50.17;;;;;;;;;;4992414;28;20180;-42
2024/01/20 02:05:28;;;;;;;72.03;29.30;;;;;;;;;;4992294;28;20173;-42
2024/01/20 02:07:54;;;;;;;82.32;40.80;;;;;;;;;;4992253;28;20734;-42
2024/01/20 02:10:21;;;;;;;177.63;54.67;;;;;;;;;;4992625;28;20169;-43
2024/01/20 02:12:47;;;;;;;180.05;51.92;;;;;;;;;;4992671;28;20320;-42
2024/01/20 02:15:13;;;;;;;178.30;52.05;;;;;;;;;;4992743;28;20656;-42
2024/01/20 02:17:55;;;;;;;180.73;51.53;;;;;;;;;;4992680;28;20173;-42
2024/01/20 02:20:23;;;;;;;184.30;55.13;;;;;;;;;;4992449;28;20168;-43
2024/01/20 02:22:49;;;;;;;180.85;52.35;;;;;;;;;;4992449;28;20212;-42
2024/01/20 02:25:16;;;;;;;181.27;51.92;;;;;;;;;;4992627;28;20169;-42
2024/01/20 02:27:42;;;;;;;179.68;52.85;;;;;;;;;;4992393;28;20331;-42
2024/01/20 02:30:08;;;;;;;178.20;51.17;;;;;;;;;;4992411;28;20206;-42
2024/01/20 02:32:34;;;;;;;182.27;53.10;;;;;;;;;;4992348;28;20446;-44
2024/01/20 02:35:00;;;;;;;180.85;52.35;;;;;;;;;;4992926;28;20532;-42
2024/01/20 02:37:26;;;;;;;180.15;52.25;;;;;;;;;;4992400;28;20177;-43
2024/01/20 02:39:52;;;;;;;180.00;51.93;;;;;;;;;;4993519;28;20235;-42
2024/01/20 02:42:18;;;;;;;180.65;52.58;;;;;;;;;;4996239;28;20430;-43
2024/01/20 02:44:44;;;;;;;180.88;52.53;;;;;;;;;;4996362;28;20180;-42
2024/01/20 02:47:10;;;;;;;178.87;51.93;;;;;;;;;;4996347;28;20199;-42
2024/01/20 02:49:36;;;;;;;180.07;52.23;;;;;;;;;;4996584;28;20991;-42
2024/01/20 02:52:02;;;;;;;178.02;49.75;;;;;;;;;;4995976;28;20772;-42
2024/01/20 02:54:28;;;;;;;179.32;51.05;;;;;;;;;;4996275;28;20244;-42
2024/01/20 02:56:54;;;;;;;172.40;52.03;;;;;;;;;;4996036;28;20253;-42
2024/01/20 02:59:20;;;;;;;47.67;40.90;;;;;;;;;;4996206;28;20404;-42
2024/01/20 03:01:46;;;;;;;100.70;46.50;;;;;;;;;;4995772;28;20444;-42
2024/01/20 03:04:13;;;;;;;178.87;50.50;;;;;;;;;;4995950;28;20415;-43
2024/01/20 03:06:39;;;;;;;160.60;51.40;;;;;;;;;;4996036;28;20818;-42
2024/01/20 03:09:05;;;;;;;180.40;53.60;;;;;;;;;;4995978;28;20303;-43
2024/01/20 03:11:31;;;;;;;181.68;52.90;;;;;;;;;;4995627;28;20181;-42
2024/01/20 03:13:57;;;;;;;180.75;53.00;;;;;;;;;;4995787;28;20176;-42
2024/01/20 03:16:23;;;;;;;181.57;53.47;;;;;;;;;;4995780;28;20165;-42
2024/01/20 03:18:49;;;;;;;180.82;52.60;;;;;;;;;;4995649;28;20404;-42
2024/01/20 03:21:15;;;;;;;178.25;51.13;;;;;;;;;;4995612;28;20185;-42
2024/01/20 03:23:42;;;;;;;179.45;52.72;;;;;;;;;;4995750;28;20180;-42
2024/01/20 03:26:08;;;;;;;180.60;52.45;;;;;;;;;;4995702;28;20224;-42
2024/01/20 03:28:34;;;;;;;180.38;51.90;;;;;;;;;;4995508;28;20205;-42
2024/01/20 03:31:01;;;;;;;178.25;50.85;;;;;;;;;;4995180;28;20252;-42
2024/01/20 03:33:27;;;;;;;182.77;53.90;;;;;;;;;;4995587;28;20588;-42
2024/01/20 03:35:53;;;;;;;180.80;52.93;;;;;;;;;;4995673;28;20177;-42
2024/01/20 03:38:19;;;;;;;180.93;52.10;;;;;;;;;;4995340;28;20775;-42
2024/01/20 03:40:45;;;;;;;183.57;54.03;;;;;;;;;;4995089;28;20408;-44
2024/01/20 03:43:11;;;;;;;179.75;52.10;;;;;;;;;;4995118;28;20649;-42
2024/01/20 03:45:42;;;;;;;161.05;50.72;;;;;;;;;;4995350;28;20533;-42
2024/01/20 03:48:08;;;;;;;114.10;45.67;;;;;;;;;;4995241;28;20200;-42
2024/01/20 03:50:34;;;;;;;164.05;51.35;;;;;;;;;;4994814;28;20219;-42
2024/01/20 03:53:01;;;;;;;180.75;52.65;;;;;;;;;;4994018;28;20172;-43
2024/01/20 03:55:27;;;;;;;165.23;49.97;;;;;;;;;;4995163;28;20172;-42
2024/01/20 03:57:53;;;;;;;154.75;51.70;;;;;;;;;;4994820;28;20180;-42
2024/01/20 04:00:19;;;;;;;46.17;39.60;;;;;;;;;;4994829;28;20172;-42
2024/01/20 04:02:45;;;;;;;177.40;52.53;;;;;;;;;;4995006;28;20201;-43
2024/01/20 04:05:11;;;;;;;177.13;52.28;;;;;;;;;;4994930;28;20200;-42
2024/01/20 04:07:37;;;;;;;177.38;51.72;;;;;;;;;;4995051;28;20192;-42
2024/01/20 04:10:04;;;;;;;177.80;51.53;;;;;;;;;;4994733;28;20177;-42
2024/01/20 04:12:30;;;;;;;42.03;36.90;;;;;;;;;;4994657;28;20192;-42
2024/01/20 04:14:56;;;;;;;52.83;44.03;;;;;;;;;;4995223;28;20534;-42
2024/01/20 04:17:22;;;;;;;85.57;36.87;;;;;;;;;;4994779;28;20496;-43
2024/01/20 04:19:48;;;;;;;170.60;52.58;;;;;;;;;;4994776;28;20405;-42
2024/01/20 04:22:14;;;;;;;179.30;53.60;;;;;;;;;;4994357;28;20199;-42
2024/01/20 04:24:40;;;;;;;177.05;50.55;;;;;;;;;;4994616;28;20177;-42
2024/01/20 04:27:06;;;;;;;166.77;49.80;;;;;;;;;;4994473;28;20411;-42
2024/01/20 04:29:32;;;;;;;39.43;33.97;;;;;;;;;;4994547;28;20398;-42
2024/01/20 04:31:58;;;;;;;38.78;35.53;;;;;;;;;;4994146;28;20467;-42
2024/01/20 04:34:24;;;;;;;18.60;13.90;;;;;;;;;;4994417;28;20204;-42
2024/01/20 04:36:50;;;;;;;173.03;51.17;;;;;;;;;;4994181;28;20416;-42
2024/01/20 04:39:16;;;;;;;175.50;50.97;;;;;;;;;;4994385;28;20420;-42
2024/01/20 04:41:42;;;;;;;177.17;52.27;;;;;;;;;;4994361;28;20436;-42
2024/01/20 04:44:07;;;;;;;152.93;47.27;;;;;;;;;;4994100;28;20475;-42
2024/01/20 04:46:33;;;;;;;179.73;52.20;;;;;;;;;;4994460;28;20424;-42
2024/01/20 04:48:59;;;;;;;178.48;50.80;;;;;;;;;;4994191;28;20460;-41
2024/01/20 04:51:25;;;;;;;177.85;50.05;;;;;;;;;;4994070;28;20185;-42
2024/01/20 04:53:51;;;;;;;179.82;51.67;;;;;;;;;;4994074;28;20168;-42
2024/01/20 04:56:22;;;;;;;170.05;50.58;;;;;;;;;;4993899;28;20173;-42
2024/01/20 04:58:48;;;;;;;166.80;48.45;;;;;;;;;;4991058;28;20179;-42
2024/01/20 05:01:14;;;;;;;179.40;51.30;;;;;;;;;;4993420;28;20243;-42
2024/01/20 05:03:40;;;;;;;177.23;50.00;;;;;;;;;;4993121;28;20212;-42
2024/01/20 05:06:06;;;;;;;178.70;50.50;;;;;;;;;;4993625;28;20416;-43
2024/01/20 05:08:32;;;;;;;178.65;50.42;;;;;;;;;;4995176;28;20459;-42
2024/01/20 05:10:58;;;;;;;178.27;51.50;;;;;;;;;;4993060;28;20739;-43
2024/01/20 05:13:24;;;;;;;179.07;51.33;;;;;;;;;;4993424;28;20415;-44
2024/01/20 05:15:50;;;;;;;178.37;51.00;;;;;;;;;;4993387;28;20411;-42
2024/01/20 05:18:16;;;;;;;179.60;51.05;;;;;;;;;;4993358;28;20413;-43
2024/01/20 05:20:42;;;;;;;177.90;51.13;;;;;;;;;;4993032;28;20264;-42
2024/01/20 05:23:07;;;;;;;174.77;49.47;;;;;;;;;;4993104;28;20978;-42
2024/01/20 05:25:33;;;;;;;176.83;50.10;;;;;;;;;;4993498;28;20779;-42
2024/01/20 05:27:59;;;;;;;182.05;53.40;;;;;;;;;;4993086;28;20522;-42
2024/01/20 05:30:25;;;;;;;180.47;53.50;;;;;;;;;;4992960;28;20176;-42
2024/01/20 05:32:51;;;;;;;179.02;51.92;;;;;;;;;;4993016;28;20431;-42
2024/01/20 05:35:18;;;;;;;177.73;50.87;;;;;;;;;;4993144;28;20585;-42
2024/01/20 05:37:45;;;;;;;179.00;51.80;;;;;;;;;;4992752;28;20534;-42
2024/01/20 05:40:12;;;;;;;177.10;53.17;;;;;;;;;;4992703;28;20629;-42
2024/01/20 05:42:37;;;;;;;176.27;50.67;;;;;;;;;;4991599;28;20436;-43
2024/01/20 05:45:06;;;;;;;176.67;51.03;;;;;;;;;;4993121;28;20580;-42
2024/01/20 05:47:32;;;;;;;178.20;51.45;;;;;;;;;;4992789;28;20534;-42
2024/01/20 05:49:58;;;;;;;180.03;52.73;;;;;;;;;;4992791;28;20727;-42
2024/01/20 05:52:24;;;;;;;176.93;51.15;;;;;;;;;;4992332;28;20416;-42
2024/01/20 05:54:50;;;;;;;176.97;50.70;;;;;;;;;;4992608;28;20180;-42
2024/01/20 05:57:16;;;;;;;177.60;50.70;;;;;;;;;;4992681;28;20409;-42
2024/01/20 05:59:42;;;;;;;179.57;51.85;;;;;;;;;;4997917;28;20477;-44
2024/01/20 06:02:08;;;;;;;180.37;52.37;;;;;;;;;;4992240;28;20684;-42
2024/01/20 06:04:34;;;;;;;178.13;51.80;;;;;;;;;;4992697;28;20904;-42
2024/01/20 06:07:00;;;;;;;181.77;54.37;;;;;;;;;;4992270;28;20931;-44
2024/01/20 06:09:26;;;;;;;180.47;53.13;;;;;;;;;;4992639;28;20923;-42
2024/01/20 06:11:52;;;;;;;179.50;52.87;;;;;;;;;;4992254;28;20928;-42
2024/01/20 06:14:17;;;;;;;176.73;50.70;;;;;;;;;;4991778;28;20408;-43
2024/01/20 06:16:43;;;;;;;177.40;50.67;;;;;;;;;;4993083;28;20418;-42
2024/01/20 06:19:09;;;;;;;177.87;51.17;;;;;;;;;;4992292;28;20435;-42
2024/01/20 06:21:35;;;;;;;179.00;51.70;;;;;;;;;;4991909;28;20436;-42
2024/01/20 06:24:02;;;;;;;177.47;51.13;;;;;;;;;;4992195;28;20498;-42
2024/01/20 06:26:28;;;;;;;19.50;18.02;;;;;;;;;;4992304;28;20428;-42
2024/01/20 06:28:54;;;;;;;174.40;50.63;;;;;;;;;;4992123;28;20207;-42
2024/01/20 06:31:24;;;;;;;176.40;51.28;;;;;;;;;;4991937;28;20428;-42
2024/01/20 06:33:51;;;;;;;177.93;52.03;;;;;;;;;;4992233;28;20200;-42
2024/01/20 06:36:17;;;;;;;177.18;50.25;;;;;;;;;;4993854;28;20200;-42
2024/01/20 06:38:43;;;;;;;178.20;52.23;;;;;;;;;;4992114;28;20684;-42
2024/01/20 06:41:09;;;;;;;181.02;52.80;;;;;;;;;;4991652;28;20836;-42
2024/01/20 06:43:35;;;;;;;178.25;51.03;;;;;;;;;;4991840;28;20199;-42
2024/01/20 06:46:01;;;;;;;180.65;51.97;;;;;;;;;;4992026;28;20180;-42
2024/01/20 06:48:32;;;;;;;177.33;50.57;;;;;;;;;;4992033;28;20197;-42
2024/01/20 06:50:59;;;;;;;174.68;51.40;;;;;;;;;;4989931;28;20485;-42
2024/01/20 06:53:26;;;;;;;191.30;54.20;;;;;;;;;;4991953;28;20173;-42
2024/01/20 06:55:52;;;;;;;188.70;53.97;;;;;;;;;;4992130;28;20177;-42
2024/01/20 06:58:18;;;;;;;185.37;50.77;;;;;;;;;;4991934;28;20307;-42
2024/01/20 07:00:44;;;;;;;186.15;51.70;;;;;;;;;;4991677;28;20427;-42
2024/01/20 07:03:10;;;;;;;185.32;50.40;;;;;;;;;;4991702;28;20185;-42
2024/01/20 07:05:36;;;;;;;186.30;50.75;;;;;;;;;;4991806;28;20664;-42
2024/01/20 07:08:02;;;;;;;173.52;50.15;;;;;;;;;;4991837;28;20722;-42
2024/01/20 07:10:28;;;;;;;186.10;52.90;;;;;;;;;;4991581;28;20285;-42
2024/01/20 07:12:54;;;;;;;186.20;50.83;;;;;;;;;;4998311;28;20248;-42
2024/01/20 07:15:22;;;;;;;185.63;51.93;;;;;;;;;;4992213;28;20706;-42
2024/01/20 07:17:48;;;;;;;186.32;51.92;;;;;;;;;;4991530;28;20432;-42
2024/01/20 07:20:15;;;;;;;197.83;61.60;;;;;;;;;;4994720;28;20668;-42
2024/01/20 07:22:41;;;;;;;186.50;53.42;;;;;;;;;;4991575;28;20533;-42
2024/01/20 07:25:08;;;;;;;186.35;52.25;;;;;;;;;;4991603;28;20176;-42
2024/01/20 07:27:34;;;;;;;185.15;50.95;;;;;;;;;;4994979;28;20204;-42
2024/01/20 07:30:00;;;;;;;185.87;51.47;;;;;;;;;;4995292;28;20193;-42
2024/01/20 07:32:26;;;;;;;170.88;48.90;;;;;;;;;;4994909;28;20439;-42
2024/01/20 07:34:52;;;;;;;182.47;50.67;;;;;;;;;;4995194;28;20185;-42
2024/01/20 07:37:18;;;;;;;183.20;50.67;;;;;;;;;;4996078;28;20407;-42
2024/01/20 07:39:46;;;;;;;185.70;50.85;;;;;;;;;;4995187;28;20659;-42
2024/01/20 07:42:12;;;;;;;187.18;51.75;;;;;;;;;;4986991;28;20664;-42
2024/01/20 07:44:38;;;;;;;184.17;49.90;;;;;;;;;;4994962;28;20185;-42
2024/01/20 07:47:04;;;;;;;185.87;51.23;;;;;;;;;;4994871;28;20451;-42
2024/01/20 07:49:30;;;;;;;186.00;50.70;;;;;;;;;;4995186;28;20912;-42
2024/01/20 07:51:56;;;;;;;186.93;52.38;;;;;;;;;;4994577;28;20428;-42
2024/01/20 07:54:22;;;;;;;183.03;49.43;;;;;;;;;;4995042;28;20184;-42
2024/01/20 07:56:48;;;;;;;185.02;49.78;;;;;;;;;;4994774;28;20412;-42
2024/01/20 07:59:16;;;;;;;173.87;47.83;;;;;;;;;;4995082;28;20188;-42
2024/01/20 08:01:42;;;;;;;169.75;47.05;;;;;;;;;;4994365;28;20439;-42
2024/01/20 08:04:08;;;;;;;10.60;9.50;;;;;;;;;;4994692;28;20165;-42
2024/01/20 08:06:36;;;;;;;14.05;12.70;;;;;;;;;;4994681;28;20415;-42
2024/01/20 08:09:02;;;;;;;15.10;13.70;;;;;;;;;;4994558;28;20339;-42
2024/01/20 08:11:28;;;;;;;123.03;41.28;;;;;;;;;;5002345;28;20192;-42
2024/01/20 08:13:54;;;;;;;137.70;48.78;;;;;;;;;;4994441;28;20188;-41
2024/01/20 08:16:21;;;;;;;185.60;54.60;;;;;;;;;;4994315;28;20587;-42
2024/01/20 08:18:47;;;;;;;185.18;52.08;;;;;;;;;;4999075;28;20179;-42
2024/01/20 08:21:13;;;;;;;185.88;50.85;;;;;;;;;;4994247;28;20216;-43
2024/01/20 08:23:39;;;;;;;187.02;51.75;;;;;;;;;;4994498;28;20667;-42
2024/01/20 08:26:05;;;;;;;187.37;52.60;;;;;;;;;;4994317;28;20181;-42
2024/01/20 08:28:31;;;;;;;184.97;53.70;;;;;;;;;;4994346;28;20503;-42
2024/01/20 08:30:57;;;;;;;24.33;22.77;;;;;;;;;;4993897;28;20867;-42
2024/01/20 08:33:23;;;;;;;33.43;31.53;;;;;;;;;;4993029;28;20200;-42
2024/01/20 08:35:50;;;;;;;23.50;21.93;;;;;;;;;;4994424;28;20396;-42
2024/01/20 08:38:16;;;;;;;85.35;38.80;;;;;;;;;;4993272;28;20408;-42
2024/01/20 08:40:42;;;;;;;39.10;36.45;;;;;;;;;;4993999;28;20661;-42
2024/01/20 08:43:08;;;;;;;42.17;39.35;;;;;;;;;;4993751;28;20196;-42
2024/01/20 08:45:34;;;;;;;25.30;23.80;;;;;;;;;;4994080;28;20177;-42
2024/01/20 08:48:00;;;;;;;35.20;33.23;;;;;;;;;;4994002;28;20490;-42
2024/01/20 08:50:26;;;;;;;147.52;52.45;;;;;;;;;;4993809;28;20400;-42
2024/01/20 08:52:53;;;;;;;48.38;45.60;;;;;;;;;;4994000;28;20169;-42
2024/01/20 08:55:19;;;;;;;44.45;42.03;;;;;;;;;;4993997;28;20169;-42
2024/01/20 08:57:45;;;;;;;40.97;38.88;;;;;;;;;;4993898;28;20173;-42
2024/01/20 09:00:12;;;;;;;81.93;44.73;;;;;;;;;;4993542;28;20537;-42
2024/01/20 09:02:38;;;;;;;195.90;62.17;;;;;;;;;;4993625;28;20420;-42
2024/01/20 09:05:05;;;;;;;208.25;67.43;;;;;;;;;;4992133;28;20200;-42
2024/01/20 09:07:31;;;;;;;203.07;62.72;;;;;;;;;;4992695;28;20205;-42
2024/01/20 09:09:57;;;;;;;206.93;67.32;;;;;;;;;;4993470;28;20696;-42
2024/01/20 09:12:23;;;;;;;205.25;62.75;;;;;;;;;;4993649;28;20439;-42
2024/01/20 09:14:48;;;;;;;207.43;64.53;;;;;;;;;;4993193;28;20181;-42
2024/01/20 09:17:15;;;;;;;199.83;63.80;;;;;;;;;;4993405;28;20463;-42
2024/01/20 09:19:41;;;;;;;206.77;63.33;;;;;;;;;;4993399;28;20400;-42
2024/01/20 09:22:07;;;;;;;212.47;70.57;;;;;;;;;;4992888;28;20271;-42
2024/01/20 09:24:33;;;;;;;207.63;66.20;;;;;;;;;;4993259;28;20499;-42
2024/01/20 09:26:59;;;;;;;211.10;68.97;;;;;;;;;;4993247;28;20416;-42
2024/01/20 09:29:26;;;;;;;210.82;70.68;;;;;;;;;;4992919;28;20471;-43
2024/01/20 09:31:52;;;;;;;210.13;69.18;;;;;;;;;;4992736;28;20232;-42
2024/01/20 09:34:18;;;;;;;212.50;72.45;;;;;;;;;;4993000;28;20653;-43
2024/01/20 09:36:45;;;;;;;214.40;71.00;;;;;;;;;;4992947;28;20251;-43
2024/01/20 09:39:12;;;;;;;213.07;70.10;;;;;;;;;;4984995;28;20412;-43
2024/01/20 09:41:39;;;;;;;214.48;71.15;;;;;;;;;;4992642;28;20191;-43
2024/01/20 09:44:07;;;;;;;216.40;71.30;;;;;;;;;;4992591;28;20226;-43
2024/01/20 09:46:33;;;;;;;80.38;51.33;;;;;;;;;;4992769;28;20183;-43
2024/01/20 09:49:00;;;;;;;142.90;59.60;;;;;;;;;;4992671;28;20291;-43
2024/01/20 09:51:31;;;;;;;219.48;77.85;;;;;;;;;;4992513;28;20199;-43
2024/01/20 09:54:00;;;;;;;215.43;72.53;;;;;;;;;;4992895;28;20509;-42
2024/01/20 09:56:27;;;;;;;220.18;77.35;;;;;;;;;;4994470;28;20227;-43
2024/01/20 09:58:57;;;;;;;178.13;64.18;;;;;;;;;;4992471;28;20194;-43
2024/01/20 10:01:23;;;;;;;218.48;74.63;;;;;;;;;;4991781;28;20223;-43
2024/01/20 10:03:50;;;;;;;81.23;53.53;;;;;;;;;;4992217;28;20197;-43
2024/01/20 10:06:16;;;;;;;44.97;42.63;;;;;;;;;;4992808;28;20434;-43
2024/01/20 10:08:42;;;;;;;31.93;30.10;;;;;;;;;;4992691;28;20679;-43
2024/01/20 10:11:07;;;;;;;121.87;58.53;;;;;;;;;;4991906;28;20427;-43
2024/01/20 10:13:33;;;;;;;217.23;73.80;;;;;;;;;;4992589;28;20400;-43
2024/01/20 10:15:59;;;;;;;143.33;57.23;;;;;;;;;;4992591;28;20462;-43
2024/01/20 10:18:25;;;;;;;155.20;57.37;;;;;;;;;;4992636;28;20951;-43
2024/01/20 10:21:01;;;;;;;216.83;73.37;;;;;;;;;;4992302;28;20938;-43
2024/01/20 10:23:27;;;;;;;221.43;78.35;;;;;;;;;;4992479;28;20400;-43
2024/01/20 10:26:06;;;;;;;218.47;74.27;;;;;;;;;;4992513;28;20226;-43
2024/01/20 10:28:34;;;;;;;214.38;71.38;;;;;;;;;;4992372;28;20460;-43
2024/01/20 10:31:08;;;;;;;143.68;56.42;;;;;;;;;;4992158;28;20191;-42
2024/01/20 10:33:33;;;;;;;32.17;30.17;;;;;;;;;;4992341;28;20165;-42
2024/01/20 10:36:00;;;;;;;29.60;27.70;;;;;;;;;;4992324;28;20173;-42
2024/01/20 10:38:28;;;;;;;32.60;30.60;;;;;;;;;;4992166;28;20416;-43
2024/01/20 10:40:55;;;;;;;27.50;25.70;;;;;;;;;;4992071;28;20583;-43
2024/01/20 10:43:21;;;;;;;27.80;26.08;;;;;;;;;;4992089;28;20178;-43
2024/01/20 10:45:52;;;;;;;177.73;61.72;;;;;;;;;;4992263;28;20176;-43
2024/01/20 10:48:20;;;;;;;204.27;70.72;;;;;;;;;;4992624;28;20239;-43
2024/01/20 10:50:50;;;;;;;221.40;77.00;;;;;;;;;;4991937;28;20161;-43
2024/01/20 10:53:16;;;;;;;183.93;68.72;;;;;;;;;;4992146;28;20192;-43
2024/01/20 10:55:42;;;;;;;132.32;51.80;;;;;;;;;;4992127;28;20267;-43
2024/01/20 10:58:09;;;;;;;27.08;25.33;;;;;;;;;;4992233;28;20188;-43
2024/01/20 11:00:37;;;;;;;24.67;23.17;;;;;;;;;;4992074;28;20161;-43
2024/01/20 11:03:03;;;;;;;28.07;26.40;;;;;;;;;;4996005;28;20406;-43
2024/01/20 11:05:29;;;;;;;26.47;24.77;;;;;;;;;;4996005;28;20430;-43
2024/01/20 11:07:56;;;;;;;27.50;25.90;;;;;;;;;;4995869;28;20960;-43
2024/01/20 11:10:23;;;;;;;29.30;27.30;;;;;;;;;;4995661;28;20487;-43
2024/01/20 11:12:59;;;;;;;25.80;24.30;;;;;;;;;;4995424;28;20421;-43
2024/01/20 11:15:28;;;;;;;222.98;77.00;;;;;;;;;;4996078;28;20414;-43
2024/01/20 11:17:54;;;;;;;226.25;78.75;;;;;;;;;;4996008;28;20162;-43
2024/01/20 11:20:20;;;;;;;226.47;82.57;;;;;;;;;;4995547;28;20259;-43
2024/01/20 11:22:47;;;;;;;226.17;79.30;;;;;;;;;;4995572;28;20439;-43
2024/01/20 11:25:14;;;;;;;228.05;80.90;;;;;;;;;;4995676;28;20784;-43
2024/01/20 11:27:46;;;;;;;223.43;78.68;;;;;;;;;;4995505;28;20196;-44
2024/01/20 11:30:12;;;;;;;223.52;75.32;;;;;;;;;;4995426;28;20244;-44
2024/01/20 11:32:38;;;;;;;220.25;75.07;;;;;;;;;;4995506;28;20265;-44
2024/01/20 11:35:05;;;;;;;210.60;80.57;;;;;;;;;;4995463;28;20204;-44
2024/01/20 11:37:32;;;;;;;225.48;81.75;;;;;;;;;;4995311;28;20920;-43
2024/01/20 11:40:07;;;;;;;145.43;62.58;;;;;;;;;;4995369;28;20240;-44
2024/01/20 11:42:34;;;;;;;226.25;79.95;;;;;;;;;;4995193;28;20247;-44
2024/01/20 11:45:00;;;;;;;226.35;82.47;;;;;;;;;;4995300;28;20559;-44
2024/01/20 11:47:27;;;;;;;224.82;80.55;;;;;;;;;;4995254;28;20175;-44
2024/01/20 11:49:54;;;;;;;211.80;78.22;;;;;;;;;;4995227;28;20539;-44
2024/01/20 11:52:20;;;;;;;222.90;79.35;;;;;;;;;;4994938;28;20182;-43
2024/01/20 11:54:46;;;;;;;223.00;82.35;;;;;;;;;;4995087;28;20207;-44
2024/01/20 11:57:19;;;;;;;216.63;81.73;;;;;;;;;;4995282;28;20661;-43
2024/01/20 11:59:45;;;;;;;219.48;80.82;;;;;;;;;;4989299;28;20419;-43
2024/01/20 12:02:11;;;;;;;219.13;77.47;;;;;;;;;;4994623;28;20562;-43
2024/01/20 12:04:37;;;;;;;216.57;75.50;;;;;;;;;;4995412;28;20483;-43
2024/01/20 12:07:03;;;;;;;214.37;74.53;;;;;;;;;;4994933;28;20403;-43
2024/01/20 12:09:29;;;;;;;219.85;82.63;;;;;;;;;;4994735;28;20957;-43
2024/01/20 12:11:56;;;;;;;206.73;74.40;;;;;;;;;;4993754;28;20204;-43
2024/01/20 12:14:22;;;;;;;29.58;24.20;;;;;;;;;;4994046;28;20400;-43
2024/01/20 12:16:49;;;;;;;221.02;79.88;;;;;;;;;;4994663;28;20183;-43
2024/01/20 12:19:16;;;;;;;40.97;36.67;;;;;;;;;;4993596;28;20178;-43
2024/01/20 12:21:42;;;;;;;26.98;25.48;;;;;;;;;;4994302;28;20223;-42
2024/01/20 12:24:15;;;;;;;161.60;61.10;;;;;;;;;;4994376;28;20176;-42
2024/01/20 12:26:41;;;;;;;219.32;78.50;;;;;;;;;;4994532;28;20256;-42
2024/01/20 12:29:08;;;;;;;217.65;75.43;;;;;;;;;;4994408;28;20686;-42
2024/01/20 12:31:34;;;;;;;28.17;25.70;;;;;;;;;;4994141;28;20197;-42
2024/01/20 12:34:00;;;;;;;23.23;21.83;;;;;;;;;;4994810;28;20173;-42
2024/01/20 12:36:27;;;;;;;23.05;21.55;;;;;;;;;;4994812;28;20607;-43
2024/01/20 12:38:53;;;;;;;215.38;71.65;;;;;;;;;;4994195;28;20633;-43
2024/01/20 12:41:19;;;;;;;213.43;71.47;;;;;;;;;;4993781;28;20199;-42
2024/01/20 12:43:48;;;;;;;213.38;69.10;;;;;;;;;;4993848;28;20275;-42
2024/01/20 12:46:15;;;;;;;35.30;26.88;;;;;;;;;;4993908;28;20170;-42
2024/01/20 12:48:40;;;;;;;209.38;74.57;;;;;;;;;;4993763;28;20239;-42
2024/01/20 12:51:07;;;;;;;21.60;20.40;;;;;;;;;;4994018;28;20251;-42
2024/01/20 12:53:33;;;;;;;25.85;24.40;;;;;;;;;;4994937;28;20400;-43
2024/01/20 12:55:59;;;;;;;29.90;27.98;;;;;;;;;;4994195;28;20433;-42
2024/01/20 12:58:25;;;;;;;27.58;25.73;;;;;;;;;;4992883;28;20299;-42
2024/01/20 13:00:51;;;;;;;29.57;27.60;;;;;;;;;;4991689;28;20732;-42
2024/01/20 13:03:18;;;;;;;213.80;73.27;;;;;;;;;;4992576;28;20413;-43
2024/01/20 13:05:45;;;;;;;214.57;80.55;;;;;;;;;;4992348;28;20483;-42
2024/01/20 13:08:11;;;;;;;147.38;56.05;;;;;;;;;;4992965;28;20196;-42
2024/01/20 13:10:37;;;;;;;204.90;71.15;;;;;;;;;;4993221;28;20252;-42
2024/01/20 13:13:03;;;;;;;214.53;73.30;;;;;;;;;;4993255;28;20177;-43
2024/01/20 13:15:29;;;;;;;215.20;75.65;;;;;;;;;;4993707;28;20403;-42
2024/01/20 13:17:57;;;;;;;215.20;75.23;;;;;;;;;;4993500;28;20196;-43
2024/01/20 13:20:23;;;;;;;61.92;40.17;;;;;;;;;;4993324;28;20415;-42
2024/01/20 13:22:49;;;;;;;27.08;25.38;;;;;;;;;;4993311;28;20188;-42
2024/01/20 13:25:15;;;;;;;24.20;22.70;;;;;;;;;;4993212;28;20514;-43
2024/01/20 13:27:41;;;;;;;28.57;26.77;;;;;;;;;;4993239;28;20542;-42
2024/01/20 13:30:08;;;;;;;27.52;25.85;;;;;;;;;;4993256;28;20412;-41
2024/01/20 13:32:34;;;;;;;25.45;23.95;;;;;;;;;;4993342;28;20544;-42
2024/01/20 13:34:59;;;;;;;28.00;26.40;;;;;;;;;;4993438;28;20160;-42
2024/01/20 13:37:25;;;;;;;24.30;22.80;;;;;;;;;;4993093;28;20922;-42
2024/01/20 13:39:51;;;;;;;23.60;22.13;;;;;;;;;;4993076;28;20403;-42
2024/01/20 13:42:18;;;;;;;24.33;22.83;;;;;;;;;;4992473;28;20494;-42
2024/01/20 13:44:44;;;;;;;212.70;77.10;;;;;;;;;;4992969;28;20459;-42
2024/01/20 13:47:10;;;;;;;224.77;82.30;;;;;;;;;;4992958;28;20187;-42
2024/01/20 13:49:36;;;;;;;214.63;75.10;;;;;;;;;;4992783;28;20466;-42
2024/01/20 13:52:02;;;;;;;217.30;76.67;;;;;;;;;;4992590;28;20514;-42
2024/01/20 13:54:28;;;;;;;218.38;78.55;;;;;;;;;;4992977;28;20402;-42
2024/01/20 13:56:54;;;;;;;213.07;69.80;;;;;;;;;;4993184;28;20168;-43
2024/01/20 13:59:20;;;;;;;214.57;73.10;;;;;;;;;;4993322;28;20490;-43
2024/01/20 14:01:47;;;;;;;216.27;76.07;;;;;;;;;;4993231;28;20963;-42